createdAt,value
2023-05-02T00:00:01.275Z,11.94
2023-05-02T00:02:29.291Z,11.88
2023-05-02T00:04:57.085Z,11.84
2023-05-02T00:07:24.524Z,11.79
2023-05-02T00:09:52.198Z,11.75
2023-05-02T00:12:19.564Z,11.72
2023-05-02T00:14:46.888Z,11.68
2023-05-02T00:17:20.812Z,11.68
2023-05-02T00:19:48.334Z,11.54
2023-05-02T00:22:15.674Z,11.53
2023-05-02T00:24:43.017Z,11.51
2023-05-02T00:27:10.809Z,11.51
2023-05-02T00:29:38.978Z,11.48
2023-05-02T00:32:07.143Z,11.54
2023-05-02T00:34:34.596Z,11.38
2023-05-02T00:37:02.289Z,11.33
2023-05-02T00:39:29.712Z,11.34
2023-05-02T00:41:59.964Z,11.32
2023-05-02T00:44:27.707Z,11.28
2023-05-02T00:46:58.910Z,11.18
2023-05-02T00:49:26.258Z,11.17
2023-05-02T00:51:54.811Z,11.00
2023-05-02T00:54:22.244Z,10.76
2023-05-02T00:56:49.627Z,10.64
2023-05-02T00:59:17.366Z,10.71
2023-05-02T01:02:20.163Z,10.70
2023-05-02T01:05:22.038Z,10.69
2023-05-02T01:08:10.937Z,10.50
2023-05-02T01:11:02.091Z,10.38
2023-05-02T01:13:35.944Z,10.34
2023-05-02T01:16:04.685Z,10.34
2023-05-02T01:18:36.015Z,10.34
2023-05-02T01:21:07.921Z,10.47
2023-05-02T01:24:12.905Z,10.70
2023-05-02T01:26:54.818Z,10.70
2023-05-02T01:29:24.021Z,10.70
2023-05-02T01:31:51.658Z,10.78
2023-05-02T01:34:21.610Z,10.80
2023-05-02T01:36:51.598Z,10.81
2023-05-02T01:39:24.565Z,10.80
2023-05-02T01:41:55.901Z,10.86
2023-05-02T01:44:24.663Z,10.74
2023-05-02T01:46:55.113Z,10.82
2023-05-02T01:49:24.988Z,10.85
2023-05-02T01:51:53.151Z,10.76
2023-05-02T01:54:23.717Z,10.79
2023-05-02T01:56:51.256Z,10.76
2023-05-02T01:59:20.964Z,10.77
2023-05-02T02:01:56.337Z,10.70
2023-05-02T02:04:25.466Z,10.58
2023-05-02T02:06:58.940Z,10.64
2023-05-02T02:09:26.472Z,10.61
2023-05-02T02:12:07.611Z,10.63
2023-05-02T02:14:38.730Z,10.60
2023-05-02T02:17:22.560Z,10.73
2023-05-02T02:19:54.120Z,10.67
2023-05-02T02:22:24.234Z,10.70
2023-05-02T02:24:54.505Z,10.66
2023-05-02T02:27:22.326Z,10.79
2023-05-02T02:29:49.527Z,10.70
2023-05-02T02:32:16.885Z,10.62
2023-05-02T02:34:45.017Z,10.71
2023-05-02T02:37:21.786Z,10.72
2023-05-02T02:40:40.641Z,10.76
2023-05-02T02:43:38.066Z,10.68
2023-05-02T02:46:42.981Z,10.65
2023-05-02T02:49:31.538Z,10.67
2023-05-02T02:52:15.688Z,10.64
2023-05-02T02:54:51.841Z,10.64
2023-05-02T02:57:43.942Z,10.72
2023-05-02T03:00:16.730Z,10.71
2023-05-02T03:02:45.144Z,10.70
2023-05-02T03:05:13.197Z,10.56
2023-05-02T03:07:41.525Z,10.54
2023-05-02T03:10:09.363Z,10.46
2023-05-02T03:12:36.794Z,10.40
2023-05-02T03:15:51.329Z,10.36
2023-05-02T03:18:19.340Z,10.40
2023-05-02T03:20:46.935Z,10.53
2023-05-02T03:23:14.318Z,10.63
2023-05-02T03:25:41.788Z,10.67
2023-05-02T03:28:09.496Z,10.71
2023-05-02T03:30:40.690Z,10.68
2023-05-02T03:33:09.047Z,10.64
2023-05-02T03:35:36.435Z,10.68
2023-05-02T03:38:03.793Z,10.73
2023-05-02T03:40:31.174Z,10.66
2023-05-02T03:42:58.530Z,10.65
2023-05-02T03:45:25.900Z,10.59
2023-05-02T03:47:53.292Z,10.55
2023-05-02T03:50:20.688Z,10.54
2023-05-02T03:52:48.265Z,10.57
2023-05-02T03:55:15.414Z,10.52
2023-05-02T03:57:42.763Z,10.52
2023-05-02T04:00:10.778Z,10.52
2023-05-02T04:02:38.441Z,10.52
2023-05-02T04:05:06.352Z,10.52
2023-05-02T04:07:33.717Z,10.51
2023-05-02T04:10:01.270Z,10.54
2023-05-02T04:12:28.782Z,10.54
2023-05-02T04:14:56.266Z,10.65
2023-05-02T04:17:26.738Z,10.68
2023-05-02T04:19:54.235Z,10.77
2023-05-02T04:22:21.569Z,10.79
2023-05-02T04:24:49.186Z,10.81
2023-05-02T04:27:16.588Z,10.92
2023-05-02T04:29:43.964Z,10.90
2023-05-02T04:32:11.813Z,10.95
2023-05-02T04:34:39.485Z,11.00
2023-05-02T04:37:07.620Z,11.05
2023-05-02T04:39:35.104Z,11.07
2023-05-02T04:42:02.628Z,11.12
2023-05-02T04:44:30.014Z,11.14
2023-05-02T04:46:57.376Z,11.12
2023-05-02T04:49:24.768Z,11.11
2023-05-02T04:51:53.271Z,11.19
2023-05-02T04:54:20.627Z,11.19
2023-05-02T04:56:48.035Z,11.15
2023-05-02T04:59:15.375Z,11.23
2023-05-02T05:01:42.857Z,11.22
2023-05-02T05:04:10.393Z,11.22
2023-05-02T05:06:38.178Z,11.26
2023-05-02T05:09:06.122Z,11.30
2023-05-02T05:11:33.588Z,11.33
2023-05-02T05:14:00.953Z,11.37
2023-05-02T05:16:28.977Z,11.41
2023-05-02T05:18:56.329Z,11.44
2023-05-02T05:21:23.678Z,11.47
2023-05-02T05:23:51.360Z,11.50
2023-05-02T05:26:18.778Z,11.51
2023-05-02T05:28:46.268Z,11.54
2023-05-02T05:31:17.229Z,11.59
2023-05-02T05:33:44.873Z,11.63
2023-05-02T05:36:17.348Z,11.63
2023-05-02T05:38:44.896Z,11.66
2023-05-02T05:41:12.664Z,11.69
2023-05-02T05:43:40.063Z,11.69
2023-05-02T05:46:07.443Z,11.73
2023-05-02T05:48:34.945Z,11.78
2023-05-02T05:51:06.132Z,11.83
2023-05-02T05:53:34.042Z,11.83
2023-05-02T05:56:10.004Z,11.88
2023-05-02T05:58:38.156Z,11.90
2023-05-02T06:01:05.923Z,11.93
2023-05-02T06:03:33.576Z,12.01
2023-05-02T06:06:01.503Z,12.05
2023-05-02T06:08:28.884Z,12.16
2023-05-02T06:10:56.218Z,12.13
2023-05-02T06:13:23.684Z,12.20
2023-05-02T06:15:51.257Z,12.29
2023-05-02T06:18:18.659Z,12.26
2023-05-02T06:20:46.422Z,12.24
2023-05-02T06:23:14.103Z,12.26
2023-05-02T06:25:41.653Z,12.25
2023-05-02T06:28:09.591Z,12.22
2023-05-02T06:30:37.323Z,12.33
2023-05-02T06:33:07.663Z,12.32
2023-05-02T06:35:35.052Z,12.37
2023-05-02T06:38:02.392Z,12.34
2023-05-02T06:40:29.814Z,12.41
2023-05-02T06:42:57.215Z,12.43
2023-05-02T06:45:24.592Z,12.54
2023-05-02T06:47:52.088Z,12.71
2023-05-02T06:50:21.084Z,12.77
2023-05-02T06:52:48.435Z,13.05
2023-05-02T06:55:15.811Z,13.17
2023-05-02T06:57:43.785Z,13.31
2023-05-02T07:00:11.835Z,13.30
2023-05-02T07:02:39.260Z,13.34
2023-05-02T07:05:06.955Z,13.26
2023-05-02T07:07:34.393Z,13.07
2023-05-02T07:10:02.210Z,13.30
2023-05-02T07:12:29.867Z,13.47
2023-05-02T07:14:57.279Z,13.58
2023-05-02T07:17:25.604Z,13.81
2023-05-02T07:19:53.478Z,13.53
2023-05-02T07:22:23.200Z,13.77
2023-05-02T07:24:58.793Z,13.58
2023-05-02T07:27:26.356Z,13.75
2023-05-02T07:29:53.775Z,13.79
2023-05-02T07:32:27.583Z,13.83
2023-05-02T07:34:58.516Z,14.04
2023-05-02T07:37:25.919Z,14.25
2023-05-02T07:39:53.266Z,14.42
2023-05-02T07:42:20.277Z,14.60
2023-05-02T07:44:47.730Z,14.03
2023-05-02T07:47:15.023Z,14.17
2023-05-02T07:49:42.374Z,14.14
2023-05-02T07:52:09.798Z,13.96
2023-05-02T07:54:37.398Z,14.06
2023-05-02T07:57:08.286Z,13.74
2023-05-02T07:59:35.781Z,14.09
2023-05-02T08:02:03.187Z,14.27
2023-05-02T08:04:30.743Z,14.24
2023-05-02T08:06:58.222Z,14.32
2023-05-02T08:09:25.860Z,14.35
2023-05-02T08:11:53.287Z,14.31
2023-05-02T08:14:20.774Z,14.57
2023-05-02T08:16:48.195Z,14.92
2023-05-02T08:19:16.011Z,15.12
2023-05-02T08:21:43.655Z,14.72
2023-05-02T08:24:11.051Z,14.54
2023-05-02T08:26:38.416Z,15.07
2023-05-02T08:29:05.874Z,15.40
2023-05-02T08:31:34.134Z,15.50
2023-05-02T08:34:01.567Z,15.60
2023-05-02T08:36:29.221Z,15.22
2023-05-02T08:38:56.556Z,15.09
2023-05-02T08:41:24.002Z,15.28
2023-05-02T08:43:51.378Z,15.29
2023-05-02T08:46:18.986Z,15.25
2023-05-02T08:48:49.684Z,15.49
2023-05-02T08:53:45.966Z,15.53
2023-05-02T08:56:13.807Z,15.25
2023-05-02T08:58:41.632Z,15.40
2023-05-02T09:01:17.667Z,15.76
2023-05-02T09:03:47.024Z,15.77
2023-05-02T09:06:17.890Z,15.92
2023-05-02T09:08:49.344Z,16.31
2023-05-02T09:11:17.550Z,15.93
2023-05-02T09:13:51.492Z,16.08
2023-05-02T09:16:23.067Z,16.55
2023-05-02T09:18:53.900Z,16.02
2023-05-02T09:21:26.763Z,16.00
2023-05-02T09:23:59.261Z,16.05
2023-05-02T09:26:32.740Z,16.39
2023-05-02T09:29:04.121Z,16.77
2023-05-02T09:31:54.813Z,16.43
2023-05-02T09:34:23.587Z,16.57
2023-05-02T09:36:54.449Z,16.29
2023-05-02T09:39:29.095Z,16.63
2023-05-02T09:41:57.239Z,16.83
2023-05-02T09:44:37.204Z,16.40
2023-05-02T09:47:06.814Z,16.44
2023-05-02T09:49:46.284Z,16.20
2023-05-02T09:52:16.229Z,16.37
2023-05-02T09:54:43.765Z,16.62
2023-05-02T09:57:11.580Z,16.53
2023-05-02T09:59:40.386Z,17.36
2023-05-02T10:02:11.599Z,16.97
2023-05-02T10:04:40.010Z,17.66
2023-05-02T10:07:10.602Z,16.99
2023-05-02T10:09:44.454Z,16.82
2023-05-02T10:12:15.431Z,16.71
2023-05-02T10:14:51.618Z,16.23
2023-05-02T10:17:31.713Z,16.56
2023-05-02T10:20:06.291Z,16.63
2023-05-02T10:22:37.021Z,16.47
2023-05-02T10:25:05.576Z,16.57
2023-05-02T10:27:33.615Z,16.49
2023-05-02T10:30:04.793Z,16.93
2023-05-02T10:32:34.779Z,17.46
2023-05-02T10:35:06.861Z,17.29
2023-05-02T10:37:37.765Z,17.34
2023-05-02T10:40:06.333Z,17.39
2023-05-02T10:42:41.122Z,17.84
2023-05-02T10:45:31.928Z,17.20
2023-05-02T10:48:25.253Z,17.72
2023-05-02T10:50:58.387Z,17.51
2023-05-02T10:53:26.523Z,17.99
2023-05-02T10:56:14.516Z,18.11
2023-05-02T10:58:44.572Z,18.71
2023-05-02T11:01:29.863Z,17.77
2023-05-02T11:04:09.024Z,18.54
2023-05-02T11:07:01.266Z,18.67
2023-05-02T11:09:28.624Z,18.38
2023-05-02T11:11:57.325Z,18.52
2023-05-02T11:14:27.680Z,17.55
2023-05-02T11:17:06.648Z,17.39
2023-05-02T11:19:45.465Z,18.28
2023-05-02T11:22:19.308Z,18.45
2023-05-02T11:24:51.223Z,18.52
2023-05-02T11:27:30.709Z,18.99
2023-05-02T11:30:06.760Z,19.30
2023-05-02T11:32:46.325Z,19.80
2023-05-02T11:35:27.260Z,18.54
2023-05-02T11:37:58.127Z,18.34
2023-05-02T11:40:28.950Z,18.52
2023-05-02T11:42:57.863Z,19.67
2023-05-02T11:45:39.183Z,19.49
2023-05-02T11:48:07.739Z,19.80
2023-05-02T11:50:52.780Z,19.97
2023-05-02T11:53:24.169Z,19.35
2023-05-02T11:55:55.852Z,18.40
2023-05-02T11:58:25.733Z,19.17
2023-05-02T12:00:53.814Z,19.29
2023-05-02T12:03:23.952Z,19.47
2023-05-02T12:05:52.361Z,20.02
2023-05-02T12:08:27.132Z,19.54
2023-05-02T12:10:56.330Z,19.22
2023-05-02T12:13:26.335Z,19.85
2023-05-02T12:15:55.378Z,20.68
2023-05-02T12:18:24.710Z,19.75
2023-05-02T12:20:53.380Z,19.50
2023-05-02T12:23:23.505Z,18.98
2023-05-02T12:25:50.897Z,19.01
2023-05-02T12:28:19.743Z,20.38
2023-05-02T12:30:50.557Z,21.28
2023-05-02T12:33:18.613Z,21.49
2023-05-02T12:35:47.551Z,19.77
2023-05-02T12:38:17.837Z,19.52
2023-05-02T12:40:50.155Z,19.66
2023-05-02T12:43:17.792Z,19.36
2023-05-02T12:45:45.414Z,18.94
2023-05-02T12:48:26.494Z,19.09
2023-05-02T12:50:55.497Z,18.33
2023-05-02T12:53:43.269Z,18.86
2023-05-02T12:56:13.812Z,18.96
2023-05-02T12:58:43.380Z,19.19
2023-05-02T13:01:12.011Z,19.28
2023-05-02T13:03:40.105Z,19.48
2023-05-02T13:06:07.604Z,19.90
2023-05-02T13:08:35.645Z,19.77
2023-05-02T13:11:04.220Z,20.25
2023-05-02T13:13:32.789Z,20.32
2023-05-02T13:16:00.282Z,20.97
2023-05-02T13:18:30.952Z,21.05
2023-05-02T13:20:58.372Z,20.68
2023-05-02T13:23:25.901Z,21.19
2023-05-02T13:25:53.384Z,21.16
2023-05-02T13:28:20.736Z,20.91
2023-05-02T13:30:48.291Z,20.43
2023-05-02T13:33:16.013Z,19.32
2023-05-02T13:35:43.086Z,19.53
2023-05-02T13:38:10.548Z,20.66
2023-05-02T13:40:37.913Z,20.60
2023-05-02T13:43:05.284Z,21.20
2023-05-02T13:45:33.085Z,20.71
2023-05-02T13:48:00.612Z,21.94
2023-05-02T13:50:28.100Z,21.95
2023-05-02T13:52:55.470Z,21.51
2023-05-02T13:55:22.891Z,21.47
2023-05-02T13:57:50.548Z,21.45
2023-05-02T14:00:20.388Z,21.71
2023-05-02T14:02:48.723Z,20.73
2023-05-02T14:05:16.212Z,22.21
2023-05-02T14:07:43.525Z,21.86
2023-05-02T14:10:10.953Z,22.58
2023-05-02T14:12:38.378Z,21.52
2023-05-02T14:15:06.317Z,21.18
2023-05-02T14:17:37.471Z,20.75
2023-05-02T14:20:05.942Z,20.31
2023-05-02T14:22:33.294Z,20.44
2023-05-02T14:25:00.747Z,20.65
2023-05-02T14:27:28.130Z,19.83
2023-05-02T14:29:55.509Z,20.16
2023-05-02T14:32:22.877Z,21.28
2023-05-02T14:34:51.446Z,20.22
2023-05-02T14:37:18.808Z,19.63
2023-05-02T14:39:51.123Z,19.79
2023-05-02T14:42:19.705Z,19.91
2023-05-02T14:44:47.059Z,20.50
2023-05-02T14:47:14.549Z,20.81
2023-05-02T14:49:41.622Z,21.28
2023-05-02T14:52:09.112Z,20.38
2023-05-02T14:54:36.527Z,21.49
2023-05-02T14:57:04.448Z,21.60
2023-05-02T14:59:31.994Z,20.58
2023-05-02T15:01:59.540Z,20.84
2023-05-02T15:04:28.020Z,20.02
2023-05-02T15:06:56.748Z,21.04
2023-05-02T15:09:26.747Z,21.04
2023-05-02T15:11:54.784Z,20.20
2023-05-02T15:14:22.274Z,20.21
2023-05-02T15:16:49.815Z,20.89
2023-05-02T15:19:17.259Z,21.00
2023-05-02T15:21:44.594Z,21.55
2023-05-02T15:24:11.888Z,20.80
2023-05-02T15:26:40.531Z,20.88
2023-05-02T15:29:08.088Z,21.07
2023-05-02T15:31:35.740Z,21.07
2023-05-02T15:34:03.406Z,21.18
2023-05-02T15:36:31.284Z,21.44
2023-05-02T15:38:58.782Z,21.01
2023-05-02T15:41:29.354Z,21.05
2023-05-02T15:43:58.016Z,21.52
2023-05-02T15:46:28.555Z,21.85
2023-05-02T15:48:56.487Z,21.38
2023-05-02T15:51:23.864Z,20.48
2023-05-02T15:53:54.555Z,21.75
2023-05-02T15:56:22.328Z,21.49
2023-05-02T15:58:49.857Z,21.30
2023-05-02T16:01:17.269Z,20.12
2023-05-02T16:03:45.348Z,20.53
2023-05-02T16:06:12.827Z,20.26
2023-05-02T16:08:40.210Z,20.45
2023-05-02T16:11:07.523Z,20.18
2023-05-02T16:13:34.905Z,20.15
2023-05-02T16:16:02.392Z,20.59
2023-05-02T16:18:29.786Z,20.56
2023-05-02T16:20:57.569Z,20.41
2023-05-02T16:23:25.879Z,19.72
2023-05-02T16:26:00.024Z,20.09
2023-05-02T16:28:27.492Z,19.61
2023-05-02T16:30:54.966Z,19.66
2023-05-02T16:33:22.608Z,19.94
2023-05-02T16:35:49.977Z,19.60
2023-05-02T16:38:17.423Z,20.03
2023-05-02T16:40:44.824Z,19.92
2023-05-02T16:43:12.266Z,20.16
2023-05-02T16:45:39.640Z,20.24
2023-05-02T16:48:07.667Z,20.10
2023-05-02T16:50:35.142Z,19.74
2023-05-02T16:53:02.615Z,18.91
2023-05-02T16:55:30.484Z,18.67
2023-05-02T16:57:57.904Z,19.00
2023-05-02T17:00:25.389Z,18.93
2023-05-02T17:02:58.249Z,18.88
2023-05-02T17:05:26.501Z,18.34
2023-05-02T17:07:54.082Z,18.29
2023-05-02T17:10:21.388Z,18.13
2023-05-02T17:12:48.771Z,18.27
2023-05-02T17:15:16.513Z,18.58
2023-05-02T17:17:44.363Z,18.97
2023-05-02T17:20:12.961Z,18.89
2023-05-02T17:22:41.700Z,18.59
2023-05-02T17:25:10.936Z,18.70
2023-05-02T17:27:40.986Z,18.41
2023-05-02T17:30:09.548Z,18.54
2023-05-02T17:32:37.796Z,18.64
2023-05-02T17:35:06.625Z,18.36
2023-05-02T17:37:34.165Z,17.94
2023-05-02T17:40:02.436Z,18.06
2023-05-02T17:42:29.992Z,17.76
2023-05-02T17:44:57.395Z,17.55
2023-05-02T17:47:25.804Z,17.47
2023-05-02T17:49:53.982Z,17.38
2023-05-02T17:52:21.659Z,17.36
2023-05-02T17:54:48.989Z,17.24
2023-05-02T17:57:16.971Z,17.05
2023-05-02T17:59:44.523Z,16.68
2023-05-02T18:02:12.087Z,16.65
2023-05-02T18:04:39.599Z,16.57
2023-05-02T18:07:06.941Z,16.42
2023-05-02T18:09:34.325Z,16.27
2023-05-02T18:12:04.523Z,16.15
2023-05-02T18:14:32.470Z,16.25
2023-05-02T18:16:59.949Z,16.09
2023-05-02T18:19:27.027Z,15.93
2023-05-02T18:21:54.568Z,15.89
2023-05-02T18:24:21.922Z,15.44
2023-05-02T18:26:50.216Z,15.44
2023-05-02T18:29:17.958Z,15.45
2023-05-02T18:31:52.270Z,15.28
2023-05-02T18:34:19.884Z,15.34
2023-05-02T18:36:47.299Z,15.08
2023-05-02T18:39:14.858Z,15.12
2023-05-02T18:41:42.304Z,14.94
2023-05-02T18:44:11.513Z,14.84
2023-05-02T18:46:39.054Z,14.78
2023-05-02T18:49:09.052Z,14.61
2023-05-02T18:51:36.424Z,14.69
2023-05-02T18:54:03.948Z,14.58
2023-05-02T18:56:31.352Z,14.37
2023-05-02T18:58:58.782Z,14.44
2023-05-02T19:01:39.472Z,14.35
2023-05-02T19:04:10.056Z,14.16
2023-05-02T19:06:37.116Z,14.07
2023-05-02T19:09:04.757Z,13.96
2023-05-02T19:11:32.105Z,14.01
2023-05-02T19:14:01.411Z,13.91
2023-05-02T19:16:29.230Z,13.64
2023-05-02T19:18:59.522Z,13.68
2023-05-02T19:21:28.040Z,13.60
2023-05-02T19:23:57.017Z,13.68
2023-05-02T19:26:24.726Z,13.58
2023-05-02T19:28:52.344Z,13.47
2023-05-02T19:31:24.860Z,13.49
2023-05-02T19:33:52.428Z,13.29
